createdAt,value
2019-02-20T00:00:47.312Z,101166.35
2019-02-20T00:04:04.277Z,101156.27
2019-02-20T00:07:21.007Z,101170.03
2019-02-20T00:10:28.386Z,101162.08
2019-02-20T00:13:44.974Z,101161.58
2019-02-20T00:16:52.288Z,101164.42
2019-02-20T00:20:09.021Z,101172.23
2019-02-20T00:23:25.745Z,101163.89
2019-02-20T00:26:42.503Z,101178.23
2019-02-20T00:29:49.665Z,101176.09
2019-02-20T00:32:57.215Z,101181.53
2019-02-20T00:36:13.672Z,101183.34
2019-02-20T00:39:20.803Z,101188.63
2019-02-20T00:42:28.024Z,101182.47
2019-02-20T00:46:00.212Z,101190.74
2019-02-20T00:49:24.703Z,101197.73
2019-02-20T00:52:49.609Z,101193.69
2019-02-20T00:55:51.323Z,101191.94
2019-02-20T00:59:07.999Z,101189.65
2019-02-20T01:02:15.210Z,101197.53
2019-02-20T01:05:22.405Z,101193.25
2019-02-20T01:08:29.693Z,101201.89
2019-02-20T01:11:36.895Z,101196.34
2019-02-20T01:14:53.575Z,101201.66
2019-02-20T01:18:00.788Z,101203.25
2019-02-20T01:21:08.003Z,101214.22
2019-02-20T01:24:15.391Z,101208.92
2019-02-20T01:27:31.936Z,101206.50
2019-02-20T01:30:39.130Z,101218.66
2019-02-20T01:33:46.260Z,101218.05
2019-02-20T01:36:53.558Z,101213.03
2019-02-20T01:40:00.810Z,101217.91
2019-02-20T01:43:17.493Z,101220.28
2019-02-20T01:46:24.768Z,101221.78
2019-02-20T01:49:41.529Z,101215.00
2019-02-20T01:52:58.214Z,101207.00
2019-02-20T01:56:05.083Z,101207.21
2019-02-20T01:59:12.334Z,101212.41
2019-02-20T02:02:19.535Z,101221.88
2019-02-20T02:05:26.663Z,101220.64
2019-02-20T02:08:33.799Z,101217.03
2019-02-20T02:11:40.925Z,101221.97
2019-02-20T02:14:48.234Z,101219.18
2019-02-20T02:17:55.359Z,101222.53
2019-02-20T02:21:02.534Z,101221.55
2019-02-20T02:24:09.715Z,101222.58
2019-02-20T02:27:16.839Z,101222.41
2019-02-20T02:30:24.136Z,101218.92
2019-02-20T02:33:31.339Z,101225.00
2019-02-20T02:36:38.961Z,101224.52
2019-02-20T02:39:46.205Z,101228.70
2019-02-20T02:42:53.514Z,101235.92
2019-02-20T02:46:10.260Z,101231.20
2019-02-20T02:49:17.405Z,101227.99
2019-02-20T02:52:24.603Z,101217.56
2019-02-20T02:55:32.219Z,101220.95
2019-02-20T02:58:48.929Z,101218.26
2019-02-20T03:02:05.674Z,101220.28
2019-02-20T03:05:22.157Z,101218.48
2019-02-20T03:08:38.963Z,101225.92
2019-02-20T03:11:46.195Z,101218.83
2019-02-20T03:14:53.397Z,101222.43
2019-02-20T03:18:00.603Z,101221.73
2019-02-20T03:21:07.848Z,101226.09
2019-02-20T03:24:14.989Z,101223.06
2019-02-20T03:27:22.205Z,101231.64
2019-02-20T03:30:29.437Z,101227.64
2019-02-20T03:33:36.574Z,101235.64
2019-02-20T03:36:43.812Z,101232.78
2019-02-20T03:39:50.956Z,101241.32
2019-02-20T03:42:58.154Z,101237.94
2019-02-20T03:46:05.472Z,101240.49
2019-02-20T03:49:22.204Z,101237.55
2019-02-20T03:52:29.329Z,101241.19
2019-02-20T03:55:36.574Z,101234.77
2019-02-20T03:58:43.723Z,101247.95
2019-02-20T04:01:51.043Z,101240.83
2019-02-20T04:04:58.187Z,101234.77
2019-02-20T04:08:15.916Z,101234.33
2019-02-20T04:11:21.486Z,101231.05
2019-02-20T04:14:28.881Z,101227.23
2019-02-20T04:17:45.408Z,101231.09
2019-02-20T04:20:52.636Z,101235.28
2019-02-20T04:24:02.726Z,101232.06
2019-02-20T04:27:09.187Z,101237.44
2019-02-20T04:30:16.498Z,101232.45
2019-02-20T04:33:23.729Z,101224.80
2019-02-20T04:36:31.023Z,101237.92
2019-02-20T04:39:38.159Z,101242.27
2019-02-20T04:42:45.283Z,101237.08
2019-02-20T04:45:52.492Z,101246.22
2019-02-20T04:48:59.633Z,101247.89
2019-02-20T04:52:06.759Z,101255.74
2019-02-20T04:55:23.104Z,101246.49
2019-02-20T04:58:39.888Z,101242.06
2019-02-20T05:01:47.130Z,101249.56
2019-02-20T05:04:54.278Z,101247.77
2019-02-20T05:08:01.512Z,101250.84
2019-02-20T05:11:08.692Z,101252.04
2019-02-20T05:14:25.384Z,101248.33
2019-02-20T05:17:32.578Z,101254.16
2019-02-20T05:20:40.136Z,101250.96
2019-02-20T05:23:56.630Z,101254.19
2019-02-20T05:27:03.775Z,101264.64
2019-02-20T05:30:11.006Z,101261.37
2019-02-20T05:33:17.289Z,101258.66
2019-02-20T05:36:24.417Z,101266.83
2019-02-20T05:39:31.545Z,101268.98
2019-02-20T05:42:48.340Z,101258.58
2019-02-20T05:45:55.534Z,101265.44
2019-02-20T05:49:02.776Z,101268.55
2019-02-20T05:52:09.942Z,101263.48
2019-02-20T05:55:17.140Z,101268.11
2019-02-20T05:58:24.288Z,101270.19
2019-02-20T06:01:31.511Z,101271.53
2019-02-20T06:04:48.041Z,101271.37
2019-02-20T06:08:04.469Z,101277.23
2019-02-20T06:11:14.734Z,101279.59
2019-02-20T06:14:30.614Z,101294.83
2019-02-20T06:17:46.803Z,101297.45
2019-02-20T06:20:54.024Z,101294.53
2019-02-20T06:24:01.479Z,101295.09
2019-02-20T06:27:17.967Z,101292.02
2019-02-20T06:30:25.268Z,101300.05
2019-02-20T06:33:32.403Z,101297.20
2019-02-20T06:36:39.524Z,101302.38
2019-02-20T06:39:46.797Z,101307.37
2019-02-20T06:42:54.032Z,101307.41
2019-02-20T06:46:01.267Z,101318.89
2019-02-20T06:49:17.928Z,101318.45
2019-02-20T06:52:25.054Z,101315.94
2019-02-20T06:55:32.366Z,101326.06
2019-02-20T06:58:39.494Z,101322.05
2019-02-20T07:01:46.623Z,101329.31
2019-02-20T07:05:29.366Z,101331.53
2019-02-20T07:09:25.418Z,101335.13
2019-02-20T07:13:01.322Z,101343.30
2019-02-20T07:16:50.525Z,101334.30
2019-02-20T07:20:44.247Z,101327.63
2019-02-20T07:24:21.186Z,101340.72
2019-02-20T07:28:13.329Z,101342.31
2019-02-20T07:31:20.556Z,101349.68
2019-02-20T07:34:27.802Z,101354.02
2019-02-20T07:37:35.115Z,101355.15
2019-02-20T07:40:42.425Z,101350.12
2019-02-20T07:43:49.611Z,101368.31
2019-02-20T07:46:56.834Z,101364.05
2019-02-20T07:50:04.191Z,101369.59
2019-02-20T07:53:11.418Z,101378.92
2019-02-20T07:56:18.646Z,101393.25
2019-02-20T07:59:25.783Z,101391.13
2019-02-20T08:02:32.998Z,101390.22
2019-02-20T08:05:40.157Z,101406.66
2019-02-20T08:08:47.453Z,101409.10
2019-02-20T08:11:54.771Z,101412.49
2019-02-20T08:15:02.013Z,101415.92
2019-02-20T08:18:19.379Z,101408.95
2019-02-20T08:21:35.953Z,101407.48
2019-02-20T08:24:52.634Z,101414.19
2019-02-20T08:27:59.769Z,101422.44
2019-02-20T08:31:07.124Z,101433.81
2019-02-20T08:34:24.097Z,101426.00
2019-02-20T08:37:40.564Z,101433.37
2019-02-20T08:40:47.702Z,101439.54
2019-02-20T08:43:54.828Z,101447.56
2019-02-20T08:47:02.122Z,101449.20
2019-02-20T08:50:10.327Z,101447.56
2019-02-20T08:53:17.604Z,101448.20
2019-02-20T08:56:24.738Z,101456.23
2019-02-20T08:59:32.067Z,101458.70
2019-02-20T09:02:39.272Z,101456.31
2019-02-20T09:05:46.445Z,101457.78
2019-02-20T09:08:53.827Z,101454.39
2019-02-20T09:12:00.961Z,101460.78
2019-02-20T09:15:08.867Z,101469.33
2019-02-20T09:18:25.317Z,101467.13
2019-02-20T09:21:32.459Z,101482.17
2019-02-20T09:24:39.772Z,101479.39
2019-02-20T09:27:47.014Z,101488.13
2019-02-20T09:30:54.253Z,101499.23
2019-02-20T09:34:01.540Z,101492.44
2019-02-20T09:37:18.165Z,101492.36
2019-02-20T09:40:36.629Z,101492.55
2019-02-20T09:43:53.578Z,101491.92
2019-02-20T09:47:10.053Z,101496.63
2019-02-20T09:50:17.360Z,101507.73
2019-02-20T09:53:33.957Z,101497.44
2019-02-20T09:56:41.098Z,101509.02
2019-02-20T09:59:48.320Z,101509.26
2019-02-20T10:02:55.555Z,101514.84
2019-02-20T10:06:02.690Z,101524.16
2019-02-20T10:09:10.257Z,101518.48
2019-02-20T10:12:27.001Z,101516.39
2019-02-20T10:15:34.230Z,101534.66
2019-02-20T10:18:41.351Z,101534.66
2019-02-20T10:21:48.583Z,101530.22
2019-02-20T10:24:55.730Z,101534.81
2019-02-20T10:28:03.055Z,101540.29
2019-02-20T10:31:19.822Z,101541.08
2019-02-20T10:34:36.462Z,101542.95
2019-02-20T10:37:43.762Z,101551.36
2019-02-20T10:41:00.418Z,101550.95
2019-02-20T10:44:07.652Z,101559.91
2019-02-20T10:47:14.900Z,101559.91
2019-02-20T10:50:22.011Z,101562.73
2019-02-20T10:53:29.193Z,101552.66
2019-02-20T10:56:36.542Z,101555.73
2019-02-20T10:59:53.281Z,101560.02
2019-02-20T11:03:16.655Z,101562.02
2019-02-20T11:06:23.776Z,101568.13
2019-02-20T11:09:31.900Z,101566.69
2019-02-20T11:12:39.135Z,101566.78
2019-02-20T11:15:46.277Z,101563.29
2019-02-20T11:18:53.518Z,101566.70
2019-02-20T11:22:00.658Z,101572.70
2019-02-20T11:25:08.962Z,101574.78
2019-02-20T11:28:16.064Z,101572.48
2019-02-20T11:31:23.205Z,101569.52
2019-02-20T11:34:30.464Z,101573.50
2019-02-20T11:37:37.508Z,101578.03
2019-02-20T11:40:44.889Z,101587.85
2019-02-20T11:43:52.125Z,101586.86
2019-02-20T11:46:59.259Z,101577.30
2019-02-20T11:50:07.859Z,101586.38
2019-02-20T11:53:15.077Z,101581.32
2019-02-20T11:56:26.554Z,101588.59
2019-02-20T11:59:31.214Z,101594.73
2019-02-20T12:02:38.715Z,101591.59
2019-02-20T12:05:46.047Z,101584.49
2019-02-20T12:08:52.780Z,101589.95
2019-02-20T12:12:00.166Z,101587.89
2019-02-20T12:15:07.738Z,101587.57
2019-02-20T12:18:17.307Z,101587.41
2019-02-20T12:21:23.913Z,101582.86
2019-02-20T12:24:32.856Z,101572.34
2019-02-20T12:27:49.627Z,101574.16
2019-02-20T12:31:06.403Z,101574.86
2019-02-20T12:34:13.603Z,101585.10
2019-02-20T12:37:20.816Z,101574.91
2019-02-20T12:40:27.966Z,101575.99
2019-02-20T12:43:35.098Z,101577.98
2019-02-20T12:46:42.243Z,101580.14
2019-02-20T12:49:51.394Z,101577.49
2019-02-20T12:52:58.342Z,101573.95
2019-02-20T12:56:10.073Z,101578.92
2019-02-20T12:59:23.930Z,101572.03
2019-02-20T13:02:31.060Z,101575.09
2019-02-20T13:05:38.458Z,101581.98
2019-02-20T13:08:55.175Z,101580.56
2019-02-20T13:12:15.784Z,101576.86
2019-02-20T13:15:23.032Z,101580.02
2019-02-20T13:18:30.223Z,101578.23
2019-02-20T13:21:37.699Z,101578.89
2019-02-20T13:24:44.843Z,101587.81
2019-02-20T13:27:51.969Z,101591.50
2019-02-20T13:30:59.096Z,101594.90
2019-02-20T13:34:06.242Z,101590.35
2019-02-20T13:37:13.609Z,101584.92
2019-02-20T13:40:20.908Z,101584.79
2019-02-20T13:43:28.177Z,101584.92
2019-02-20T13:46:35.412Z,101591.84
2019-02-20T13:49:42.545Z,101587.95
2019-02-20T13:52:52.428Z,101583.66
2019-02-20T13:55:58.647Z,101587.95
2019-02-20T13:59:06.051Z,101588.67
2019-02-20T14:02:13.289Z,101580.62
2019-02-20T14:05:20.626Z,101570.91
2019-02-20T14:08:27.788Z,101569.02
2019-02-20T14:11:34.990Z,101563.16
2019-02-20T14:14:51.856Z,101565.89
2019-02-20T14:17:59.159Z,101567.11
2019-02-20T14:21:15.901Z,101558.86
2019-02-20T14:24:23.072Z,101564.73
2019-02-20T14:27:30.602Z,101584.58
2019-02-20T14:30:53.101Z,101576.54
2019-02-20T14:34:15.780Z,101562.44
2019-02-20T14:37:24.188Z,101565.67
2019-02-20T14:40:31.406Z,101561.55
2019-02-20T14:43:38.837Z,101566.53
2019-02-20T14:46:46.076Z,101559.47
2019-02-20T14:49:53.226Z,101559.60
2019-02-20T14:53:00.532Z,101565.11
2019-02-20T14:56:07.674Z,101575.70
2019-02-20T14:59:15.124Z,101576.28
2019-02-20T15:02:31.805Z,101574.65
2019-02-20T15:05:48.829Z,101567.58
2019-02-20T15:08:56.545Z,101570.64
2019-02-20T15:12:03.980Z,101565.88
2019-02-20T15:15:11.876Z,101585.48
2019-02-20T15:18:28.453Z,101570.75
2019-02-20T15:21:35.832Z,101577.27
2019-02-20T15:24:52.486Z,101575.47
2019-02-20T15:27:59.743Z,101586.23
2019-02-20T15:31:16.405Z,101580.84
2019-02-20T15:34:25.347Z,101585.41
2019-02-20T15:37:32.662Z,101592.41
2019-02-20T15:40:49.213Z,101584.81
2019-02-20T15:44:06.076Z,101586.86
2019-02-20T15:47:22.832Z,101588.47
2019-02-20T15:50:30.719Z,101593.45
2019-02-20T15:53:38.021Z,101587.16
2019-02-20T15:56:45.336Z,101585.73
2019-02-20T15:59:52.472Z,101589.33
2019-02-20T16:02:59.612Z,101586.86
2019-02-20T16:06:06.832Z,101587.75
2019-02-20T16:09:14.110Z,101590.31
2019-02-20T16:12:21.318Z,101584.39
2019-02-20T16:15:28.633Z,101584.20
2019-02-20T16:18:36.111Z,101579.37
2019-02-20T16:21:43.247Z,101581.10
2019-02-20T16:24:50.472Z,101581.59
2019-02-20T16:27:57.609Z,101585.34
2019-02-20T16:31:04.942Z,101587.76
2019-02-20T16:34:12.072Z,101589.67
2019-02-20T16:37:19.285Z,101591.45
2019-02-20T16:40:27.374Z,101585.14
2019-02-20T16:43:34.610Z,101587.61
2019-02-20T16:46:41.825Z,101588.73
2019-02-20T16:49:48.956Z,101582.97
2019-02-20T16:52:56.740Z,101591.94
2019-02-20T16:56:03.945Z,101589.72
2019-02-20T16:59:11.177Z,101601.06
2019-02-20T17:02:18.406Z,101605.44
2019-02-20T17:05:25.752Z,101609.39
2019-02-20T17:08:33.148Z,101614.55
2019-02-20T17:11:38.821Z,101621.81
2019-02-20T17:14:45.948Z,101624.46
2019-02-20T17:17:53.241Z,101619.63
2019-02-20T17:21:00.404Z,101627.20
2019-02-20T17:24:07.756Z,101630.66
2019-02-20T17:27:24.433Z,101629.05
2019-02-20T17:30:31.621Z,101643.89
2019-02-20T17:33:37.875Z,101642.62
2019-02-20T17:36:45.279Z,101643.73
2019-02-20T17:39:52.503Z,101647.61
2019-02-20T17:42:59.697Z,101636.78
2019-02-20T17:46:07.255Z,101649.64
2019-02-20T17:49:14.410Z,101650.78
2019-02-20T17:52:21.538Z,101656.03
2019-02-20T17:55:28.741Z,101670.30
2019-02-20T17:58:36.139Z,101663.72
2019-02-20T18:01:42.948Z,101661.82
2019-02-20T18:04:50.160Z,101668.22
2019-02-20T18:07:57.468Z,101666.23
2019-02-20T18:11:04.679Z,101672.23
2019-02-20T18:14:12.379Z,101667.34
2019-02-20T18:17:19.716Z,101660.64
2019-02-20T18:20:36.432Z,101662.48
2019-02-20T18:23:43.891Z,101655.03
2019-02-20T18:27:00.281Z,101669.63
2019-02-20T18:30:07.773Z,101660.94
2019-02-20T18:33:24.252Z,101660.81
2019-02-20T18:36:31.393Z,101668.36
2019-02-20T18:39:38.679Z,101668.31
2019-02-20T18:42:45.958Z,101667.30
2019-02-20T18:46:02.695Z,101670.44
2019-02-20T18:49:21.148Z,101659.45
2019-02-20T18:52:37.785Z,101664.56
2019-02-20T18:55:44.903Z,101676.12
2019-02-20T18:58:52.177Z,101664.92
2019-02-20T19:02:09.002Z,101668.70
2019-02-20T19:05:18.691Z,101663.98
2019-02-20T19:08:46.466Z,101660.19
2019-02-20T19:12:46.569Z,101661.95
2019-02-20T19:16:39.188Z,101662.48
2019-02-20T19:20:22.896Z,101657.98
2019-02-20T19:24:16.050Z,101659.88
2019-02-20T19:27:58.421Z,101656.39
2019-02-20T19:31:50.190Z,101663.67
2019-02-20T19:35:21.592Z,101668.84
2019-02-20T19:38:50.307Z,101662.93
2019-02-20T19:42:35.921Z,101662.98
2019-02-20T19:46:19.057Z,101661.61
2019-02-20T19:50:07.952Z,101659.75
2019-02-20T19:53:33.116Z,101664.07
2019-02-20T19:56:48.423Z,101656.44
2019-02-20T20:00:27.913Z,101654.63
2019-02-20T20:04:14.011Z,101645.08
2019-02-20T20:07:58.212Z,101648.30
2019-02-20T20:11:44.941Z,101652.50
2019-02-20T20:15:20.284Z,101641.67
2019-02-20T20:19:04.767Z,101637.34
2019-02-20T20:22:27.514Z,101639.34
2019-02-20T20:26:11.880Z,101641.96
2019-02-20T20:29:49.663Z,101641.20
2019-02-20T20:33:43.946Z,101637.63
2019-02-20T20:37:14.608Z,101641.85
2019-02-20T20:40:47.861Z,101642.23
2019-02-20T20:44:11.133Z,101637.00
2019-02-20T20:47:55.252Z,101635.45
2019-02-20T20:51:43.724Z,101634.48
2019-02-20T20:59:17.463Z,101637.17
2019-02-20T21:02:36.353Z,101641.59
2019-02-20T21:06:17.157Z,101641.45
2019-02-20T21:10:24.458Z,101632.18
2019-02-20T21:13:57.338Z,101627.84
2019-02-20T21:17:50.964Z,101631.92
2019-02-20T21:21:35.551Z,101635.33
2019-02-20T21:25:19.096Z,101634.73
2019-02-20T21:29:07.582Z,101634.45
2019-02-20T21:32:41.922Z,101633.02
2019-02-20T21:36:21.372Z,101626.05
2019-02-20T21:39:55.993Z,101639.91
2019-02-20T21:43:40.446Z,101646.06
2019-02-20T21:47:23.229Z,101637.22
2019-02-20T21:51:06.627Z,101643.02
2019-02-20T21:55:13.495Z,101662.61
2019-02-20T21:58:34.512Z,101639.07
2019-02-20T22:02:22.803Z,101643.80
2019-02-20T22:05:51.583Z,101639.74
2019-02-20T22:09:24.678Z,101639.26
2019-02-20T22:13:15.130Z,101646.81
2019-02-20T22:16:57.975Z,101652.20
2019-02-20T22:20:24.226Z,101647.86
2019-02-20T22:23:55.372Z,101649.19
2019-02-20T22:27:39.741Z,101644.56
2019-02-20T22:31:30.479Z,101645.30
2019-02-20T22:35:03.357Z,101653.83
2019-02-20T22:39:01.073Z,101650.97
2019-02-20T22:42:45.337Z,101653.83
2019-02-20T22:46:13.867Z,101658.59
2019-02-20T22:50:14.800Z,101645.09
2019-02-20T22:54:11.511Z,101651.01
2019-02-20T22:57:57.981Z,101653.47
2019-02-20T23:01:44.290Z,101650.38
2019-02-20T23:05:25.342Z,101651.14
2019-02-20T23:08:42.001Z,101655.73
2019-02-20T23:12:36.490Z,101651.49
2019-02-20T23:15:52.808Z,101637.81
2019-02-20T23:19:00.043Z,101644.65
2019-02-20T23:22:07.339Z,101636.27
2019-02-20T23:25:14.611Z,101639.34
2019-02-20T23:28:31.187Z,101634.45
2019-02-20T23:31:38.406Z,101644.38
2019-02-20T23:34:45.553Z,101645.23
2019-02-20T23:37:52.772Z,101643.59
2019-02-20T23:40:59.891Z,101651.28
2019-02-20T23:44:07.113Z,101636.97
2019-02-20T23:47:14.362Z,101638.39
2019-02-20T23:50:21.478Z,101634.09
2019-02-20T23:53:28.753Z,101632.52
2019-02-20T23:56:34.803Z,101635.47
2019-02-20T23:59:51.234Z,101635.81
